Time;durP1;ratioP1;P1;durP2;ratioP2;P2;SDS_P1;SDS_P2;PMS_P1;PMS_P2;Temp;Humidity;BMP_temperature;BMP_pressure;BME280_temperature;BME280_humidity;BME280_pressure;Samples;Min_cycle;Max_cycle;Signal;HPM_P1;HPM_P2
2021/09/28 00:00:08;;;;;;;0.70;0.30;;;;;;;;;;10288624;28;20410;-62
2021/09/28 00:05:09;;;;;;;2.47;0.68;;;;;;;;;;10292062;28;20095;-62
2021/09/28 00:10:07;;;;;;;3.33;1.03;;;;;;;;;;10296888;28;20533;-62
2021/09/28 00:15:05;;;;;;;2.67;1.10;;;;;;;;;;10276990;28;20034;-62
2021/09/28 00:20:04;;;;;;;3.97;0.55;;;;;;;;;;10277023;28;20033;-63
2021/09/28 00:25:01;;;;;;;9.13;2.03;;;;;;;;;;10292638;28;20044;-61
2021/09/28 00:29:59;;;;;;;4.03;0.60;;;;;;;;;;10293278;28;20038;-62
2021/09/28 00:34:56;;;;;;;6.93;1.53;;;;;;;;;;10295193;28;20041;-62
2021/09/28 00:39:54;;;;;;;3.67;0.90;;;;;;;;;;10293163;28;20033;-61
2021/09/28 00:44:51;;;;;;;2.53;0.60;;;;;;;;;;10277236;28;20095;-62
2021/09/28 00:49:48;;;;;;;9.70;1.07;;;;;;;;;;10298968;28;20036;-62
2021/09/28 00:54:47;;;;;;;6.60;1.20;;;;;;;;;;10298008;28;20076;-62
2021/09/28 00:59:44;;;;;;;6.63;1.45;;;;;;;;;;10299936;28;20053;-62
2021/09/28 01:04:41;;;;;;;4.97;0.57;;;;;;;;;;10302559;28;20044;-61
2021/09/28 01:09:39;;;;;;;4.37;1.20;;;;;;;;;;10303168;28;20037;-61
2021/09/28 01:14:37;;;;;;;7.90;1.35;;;;;;;;;;10301330;28;20033;-61
2021/09/28 01:19:35;;;;;;;3.90;1.00;;;;;;;;;;10295753;28;20038;-61
2021/09/28 01:24:32;;;;;;;7.60;1.43;;;;;;;;;;10303642;28;20041;-61
2021/09/28 01:29:30;;;;;;;8.60;1.10;;;;;;;;;;10295231;28;20049;-62
2021/09/28 01:34:27;;;;;;;2.53;0.97;;;;;;;;;;10295848;28;20033;-62
2021/09/28 01:39:24;;;;;;;4.60;1.10;;;;;;;;;;10301902;28;20040;-62
2021/09/28 01:44:22;;;;;;;6.20;1.40;;;;;;;;;;10289323;28;20045;-62
2021/09/28 01:49:20;;;;;;;3.53;1.03;;;;;;;;;;10260556;28;20415;-62
2021/09/28 01:54:18;;;;;;;3.40;1.20;;;;;;;;;;10300047;28;20027;-61
2021/09/28 01:59:16;;;;;;;;;;;;;;;;;;10301929;28;20117;-61
2021/09/28 02:04:13;;;;;;;8.27;1.63;;;;;;;;;;10308404;28;19955;-62
2021/09/28 02:09:10;;;;;;;7.17;1.67;;;;;;;;;;10302741;28;20088;-62
2021/09/28 02:14:08;;;;;;;6.77;1.20;;;;;;;;;;10303410;28;20018;-63
2021/09/28 02:19:06;;;;;;;5.20;1.50;;;;;;;;;;10284895;28;20072;-62
2021/09/28 02:24:04;;;;;;;7.00;1.30;;;;;;;;;;10299072;28;20521;-61
2021/09/28 02:29:01;;;;;;;5.23;1.50;;;;;;;;;;10302324;28;20033;-59
2021/09/28 02:34:00;;;;;;;5.67;1.70;;;;;;;;;;10285171;28;20288;-61
2021/09/28 02:38:57;;;;;;;4.85;1.08;;;;;;;;;;10247487;28;20754;-62
2021/09/28 02:43:54;;;;;;;3.87;1.37;;;;;;;;;;10301669;28;20060;-61
2021/09/28 02:48:52;;;;;;;5.73;1.30;;;;;;;;;;10301793;28;20041;-61
2021/09/28 02:53:49;;;;;;;9.67;1.60;;;;;;;;;;10299196;28;20042;-60
2021/09/28 02:58:47;;;;;;;4.37;1.73;;;;;;;;;;10259042;28;20100;-62
2021/09/28 03:03:44;;;;;;;6.33;1.50;;;;;;;;;;10253079;28;20054;-62
2021/09/28 03:08:41;;;;;;;5.50;1.20;;;;;;;;;;10249885;28;20034;-61
2021/09/28 03:13:39;;;;;;;3.37;1.03;;;;;;;;;;10257422;28;20080;-63
2021/09/28 03:18:36;;;;;;;5.63;1.17;;;;;;;;;;10241912;28;20027;-62
2021/09/28 03:23:34;;;;;;;7.70;1.27;;;;;;;;;;10264460;28;20042;-62
2021/09/28 03:28:32;;;;;;;8.97;6.93;;;;;;;;;;10236818;28;20042;-60
2021/09/28 03:33:29;;;;;;;4.28;1.63;;;;;;;;;;10252349;28;20462;-60
2021/09/28 03:38:27;;;;;;;8.30;1.77;;;;;;;;;;10236031;28;20031;-61
2021/09/28 03:43:26;;;;;;;3.13;1.23;;;;;;;;;;10239297;28;20041;-60
2021/09/28 03:48:23;;;;;;;3.25;1.15;;;;;;;;;;10231604;28;20030;-61
2021/09/28 03:53:21;;;;;;;11.77;2.07;;;;;;;;;;10241335;28;20037;-61
2021/09/28 03:58:18;;;;;;;8.47;1.10;;;;;;;;;;10252373;28;20042;-61
2021/09/28 04:03:16;;;;;;;9.33;1.90;;;;;;;;;;10230210;28;20077;-62
2021/09/28 04:08:13;;;;;;;4.43;2.10;;;;;;;;;;10237206;28;20034;-60
2021/09/28 04:13:11;;;;;;;6.83;2.03;;;;;;;;;;10264042;28;20034;-61
2021/09/28 04:18:09;;;;;;;6.38;1.40;;;;;;;;;;10259940;28;20030;-61
2021/09/28 04:23:07;;;;;;;4.95;1.15;;;;;;;;;;10258897;28;20037;-58
2021/09/28 04:28:05;;;;;;;3.55;1.35;;;;;;;;;;10260330;28;20494;-60
2021/09/28 04:33:02;;;;;;;3.33;1.23;;;;;;;;;;10266386;28;20109;-60
2021/09/28 04:38:00;;;;;;;3.07;1.47;;;;;;;;;;10263348;28;20116;-58
2021/09/28 04:42:57;;;;;;;3.87;1.50;;;;;;;;;;10269536;28;20038;-60
2021/09/28 04:47:55;;;;;;;4.63;1.47;;;;;;;;;;10245679;28;20034;-60
2021/09/28 04:52:52;;;;;;;4.73;1.43;;;;;;;;;;10254508;28;20037;-59
2021/09/28 04:57:50;;;;;;;1.97;1.50;;;;;;;;;;10277405;28;20161;-59
2021/09/28 05:02:47;;;;;;;0.30;0.30;;;;;;;;;;10234369;28;20415;-61
2021/09/28 05:07:45;;;;;;;2.97;0.70;;;;;;;;;;10245384;28;20049;-61
2021/09/28 05:12:42;;;;;;;0.90;0.57;;;;;;;;;;10250509;28;20111;-59
2021/09/28 05:17:40;;;;;;;1.00;0.70;;;;;;;;;;10247411;28;20034;-60
2021/09/28 05:22:37;;;;;;;3.33;0.43;;;;;;;;;;10242354;28;20042;-61
2021/09/28 05:27:34;;;;;;;0.30;0.30;;;;;;;;;;10229329;28;20040;-60
2021/09/28 05:32:32;;;;;;;3.67;0.67;;;;;;;;;;10242076;28;20045;-60
2021/09/28 05:37:29;;;;;;;2.40;0.70;;;;;;;;;;10280748;28;20068;-61
2021/09/28 05:42:27;;;;;;;1.77;0.80;;;;;;;;;;10289651;28;20095;-58
2021/09/28 05:47:24;;;;;;;3.73;0.80;;;;;;;;;;10285437;28;20029;-63
2021/09/28 05:52:21;;;;;;;1.27;1.13;;;;;;;;;;10260425;28;20038;-60
2021/09/28 05:57:20;;;;;;;2.47;0.70;;;;;;;;;;10246897;28;20038;-60
2021/09/28 06:02:18;;;;;;;2.83;0.90;;;;;;;;;;10248938;28;20041;-60
2021/09/28 06:07:16;;;;;;;3.95;0.77;;;;;;;;;;10247668;28;20604;-59
2021/09/28 06:12:14;;;;;;;2.97;1.10;;;;;;;;;;10241092;28;20494;-60
2021/09/28 06:17:11;;;;;;;1.07;0.60;;;;;;;;;;10246595;28;20061;-61
2021/09/28 06:22:08;;;;;;;2.03;1.10;;;;;;;;;;10247545;28;20042;-61
2021/09/28 06:27:07;;;;;;;1.00;0.77;;;;;;;;;;10263915;28;20046;-59
2021/09/28 06:32:04;;;;;;;3.80;0.98;;;;;;;;;;10262069;28;20057;-61
2021/09/28 06:37:02;;;;;;;2.65;1.50;;;;;;;;;;10244612;28;20116;-61
2021/09/28 06:41:59;;;;;;;1.63;0.77;;;;;;;;;;10255297;28;20049;-59
2021/09/28 06:46:57;;;;;;;1.93;0.80;;;;;;;;;;10230957;28;20037;-61
2021/09/28 06:51:55;;;;;;;2.47;1.07;;;;;;;;;;10218903;28;20038;-60
2021/09/28 06:56:52;;;;;;;1.53;1.20;;;;;;;;;;10240010;28;20031;-60
2021/09/28 07:01:49;;;;;;;1.13;0.63;;;;;;;;;;10235174;28;20095;-59
2021/09/28 07:06:47;;;;;;;1.53;1.30;;;;;;;;;;10244674;28;20072;-59
2021/09/28 07:11:44;;;;;;;2.27;1.47;;;;;;;;;;10268214;28;20082;-58
2021/09/28 07:16:42;;;;;;;;;;;;;;;;;;10258825;28;20499;-61
2021/09/28 07:21:40;;;;;;;1.43;1.17;;;;;;;;;;10237478;28;20306;-62
2021/09/28 07:26:37;;;;;;;0.60;0.60;;;;;;;;;;10237496;28;20120;-61
2021/09/28 07:31:35;;;;;;;1.07;0.67;;;;;;;;;;10235485;28;20042;-60
2021/09/28 07:36:32;;;;;;;2.00;1.60;;;;;;;;;;10231263;28;20038;-59
2021/09/28 07:41:30;;;;;;;4.40;0.87;;;;;;;;;;10237603;28;20038;-61
2021/09/28 07:46:27;;;;;;;1.97;1.00;;;;;;;;;;10224183;28;20026;-61
2021/09/28 07:51:25;;;;;;;2.60;0.93;;;;;;;;;;10268638;28;20033;-60
2021/09/28 07:56:22;;;;;;;1.83;1.03;;;;;;;;;;10281448;28;20068;-60
2021/09/28 08:01:20;;;;;;;1.53;0.83;;;;;;;;;;10264983;28;20030;-61
2021/09/28 08:06:17;;;;;;;3.20;0.60;;;;;;;;;;10242179;28;20470;-59
2021/09/28 08:11:15;;;;;;;4.27;1.07;;;;;;;;;;10243061;28;20038;-58
2021/09/28 08:16:12;;;;;;;1.10;1.00;;;;;;;;;;10241043;28;20039;-60
2021/09/28 08:21:10;;;;;;;1.88;1.10;;;;;;;;;;10260748;28;20303;-60
2021/09/28 08:31:23;;;;;;;5.70;1.63;;;;;;;;;;10263730;28;20572;-61
2021/09/28 08:36:20;;;;;;;1.60;0.83;;;;;;;;;;10241278;28;20030;-60
2021/09/28 08:41:18;;;;;;;4.33;0.93;;;;;;;;;;10238318;28;20046;-60
2021/09/28 08:46:16;;;;;;;2.20;1.70;;;;;;;;;;10261080;28;20100;-61
2021/09/28 08:51:13;;;;;;;;;;;;;;;;;;10277470;28;20045;-61
2021/09/28 08:56:11;;;;;;;5.90;1.08;;;;;;;;;;10283501;28;19920;-60
2021/09/28 09:01:09;;;;;;;5.13;1.95;;;;;;;;;;10258881;28;20045;-59
2021/09/28 09:06:09;;;;;;;6.80;1.83;;;;;;;;;;10238196;28;20030;-59
2021/09/28 09:11:08;;;;;;;3.03;1.38;;;;;;;;;;10245221;28;20038;-58
2021/09/28 09:16:06;;;;;;;4.50;1.60;;;;;;;;;;10249987;28;20447;-59
2021/09/28 09:21:05;;;;;;;3.22;1.15;;;;;;;;;;10225805;28;20515;-61
2021/09/28 09:26:02;;;;;;;;;;;;;;;;;;10230688;28;20034;-63
2021/09/28 09:31:05;;;;;;;2.25;0.93;;;;;;;;;;10247584;28;19918;-60
2021/09/28 09:36:03;;;;;;;7.78;1.63;;;;;;;;;;10240592;28;20038;-62
2021/09/28 09:41:00;;;;;;;;;;;;;;;;;;10236144;28;20033;-60
2021/09/28 09:46:10;;;;;;;7.63;1.35;;;;;;;;;;10241052;28;20149;-60
2021/09/28 09:51:08;;;;;;;5.25;1.65;;;;;;;;;;10241839;28;20041;-61
2021/09/28 09:56:05;;;;;;;;;;;;;;;;;;10244264;28;20045;-61
2021/09/28 10:01:02;;;;;;;2.28;1.70;;;;;;;;;;10233703;28;19913;-61
2021/09/28 10:06:00;;;;;;;;;;;;;;;;;;10245124;28;20177;-62
2021/09/28 10:10:57;;;;;;;10.18;2.63;;;;;;;;;;10246085;28;19947;-61
2021/09/28 10:15:55;;;;;;;;;;;;;;;;;;10242237;28;20029;-62
2021/09/28 10:20:52;;;;;;;7.10;2.08;;;;;;;;;;10244268;28;19949;-63
2021/09/28 10:25:49;;;;;;;2.43;1.10;;;;;;;;;;10232548;28;20034;-64
2021/09/28 10:30:47;;;;;;;5.00;1.87;;;;;;;;;;10247146;28;20063;-59
2021/09/28 10:35:53;;;;;;;3.25;1.50;;;;;;;;;;10243320;28;20097;-62
2021/09/28 10:40:51;;;;;;;2.97;2.00;;;;;;;;;;10236044;28;20141;-62
2021/09/28 10:45:48;;;;;;;4.10;1.73;;;;;;;;;;10247214;28;20129;-61
2021/09/28 10:50:46;;;;;;;4.57;1.23;;;;;;;;;;10235940;28;20052;-58
2021/09/28 10:55:54;;;;;;;3.95;1.60;;;;;;;;;;10256042;28;21125;-62
2021/09/28 11:00:54;;;;;;;1.33;0.60;;;;;;;;;;10258876;28;20044;-59
2021/09/28 11:05:55;;;;;;;1.85;1.02;;;;;;;;;;10249252;28;20054;-60
2021/09/28 11:10:57;;;;;;;4.55;2.25;;;;;;;;;;10235897;28;20050;-60
2021/09/28 11:15:57;;;;;;;2.35;1.67;;;;;;;;;;10227040;28;20599;-62
2021/09/28 11:21:06;;;;;;;4.85;2.00;;;;;;;;;;10217792;28;20356;-62
2021/09/28 11:26:03;;;;;;;3.15;0.50;;;;;;;;;;10224861;28;20399;-62
2021/09/28 11:31:02;;;;;;;2.58;0.63;;;;;;;;;;10238070;28;20034;-63
2021/09/28 11:35:59;;;;;;;5.65;2.35;;;;;;;;;;10233884;28;20499;-62
2021/09/28 11:41:09;;;;;;;6.13;2.03;;;;;;;;;;10258636;28;20041;-59
2021/09/28 11:46:08;;;;;;;8.05;1.38;;;;;;;;;;10268690;28;20069;-63
2021/09/28 11:51:15;;;;;;;8.25;2.78;;;;;;;;;;10247355;28;20052;-60
2021/09/28 11:56:19;;;;;;;5.63;2.90;;;;;;;;;;10234455;28;20033;-63
2021/09/28 12:01:17;;;;;;;3.78;1.63;;;;;;;;;;10242210;28;20049;-61
2021/09/28 12:06:26;;;;;;;6.90;2.65;;;;;;;;;;10261789;28;20083;-59
2021/09/28 12:11:24;;;;;;;2.70;1.10;;;;;;;;;;10263635;28;20095;-60
2021/09/28 12:16:22;;;;;;;6.27;1.10;;;;;;;;;;10242483;28;20568;-61
2021/09/28 12:21:21;;;;;;;2.55;0.90;;;;;;;;;;10267558;28;20268;-64
2021/09/28 12:26:23;;;;;;;2.90;1.15;;;;;;;;;;10289591;28;20111;-63
2021/09/28 12:31:35;;;;;;;5.15;1.45;;;;;;;;;;10265680;28;20395;-62
2021/09/28 12:36:33;;;;;;;8.80;2.00;;;;;;;;;;10265159;28;20067;-63
2021/09/28 12:41:30;;;;;;;23.85;5.90;;;;;;;;;;10271232;28;20153;-62
2021/09/28 12:46:30;;;;;;;23.50;7.83;;;;;;;;;;10270512;28;20042;-60
2021/09/28 12:51:27;;;;;;;34.00;13.23;;;;;;;;;;10286097;28;20633;-62
2021/09/28 12:56:24;;;;;;;18.80;7.03;;;;;;;;;;10278471;28;20033;-60
2021/09/28 13:01:22;;;;;;;10.63;4.07;;;;;;;;;;10270078;28;20096;-62
2021/09/28 13:06:20;;;;;;;5.57;2.90;;;;;;;;;;10264788;28;20048;-61
2021/09/28 13:11:17;;;;;;;7.63;2.58;;;;;;;;;;10270098;28;20376;-62
2021/09/28 13:16:14;;;;;;;6.63;1.93;;;;;;;;;;10250140;28;20034;-61
2021/09/28 13:21:12;;;;;;;2.10;1.10;;;;;;;;;;10249351;28;20050;-61
2021/09/28 13:26:09;;;;;;;7.20;1.73;;;;;;;;;;10229323;28;20029;-62
2021/09/28 13:31:07;;;;;;;3.95;1.55;;;;;;;;;;10247458;28;20038;-60
2021/09/28 13:36:04;;;;;;;2.80;1.17;;;;;;;;;;10230553;28;20026;-63
2021/09/28 13:41:02;;;;;;;2.88;0.98;;;;;;;;;;10241305;28;20281;-62
2021/09/28 13:46:01;;;;;;;4.10;1.58;;;;;;;;;;10244110;28;20290;-61
2021/09/28 13:50:59;;;;;;;4.00;0.90;;;;;;;;;;10237355;28;20041;-61
2021/09/28 13:55:56;;;;;;;5.88;1.50;;;;;;;;;;10250729;28;20029;-60
2021/09/28 14:00:54;;;;;;;7.87;1.57;;;;;;;;;;10252107;28;20038;-61
2021/09/28 14:05:51;;;;;;;3.90;1.00;;;;;;;;;;10231524;28;20101;-61
2021/09/28 14:10:48;;;;;;;5.10;0.57;;;;;;;;;;10239440;28;20584;-61
2021/09/28 14:15:46;;;;;;;3.00;0.80;;;;;;;;;;10235315;28;20318;-61
2021/09/28 14:20:43;;;;;;;3.63;1.03;;;;;;;;;;10233735;28;20038;-62
2021/09/28 14:25:40;;;;;;;6.77;1.20;;;;;;;;;;10230242;28;20277;-61
2021/09/28 14:30:38;;;;;;;3.97;0.67;;;;;;;;;;10236430;28;20034;-60
2021/09/28 14:35:37;;;;;;;3.20;1.02;;;;;;;;;;10239074;28;20480;-61
2021/09/28 14:40:35;;;;;;;4.40;0.93;;;;;;;;;;10239060;28;20030;-61
2021/09/28 14:45:33;;;;;;;3.33;1.05;;;;;;;;;;10244460;28;20396;-61
2021/09/28 14:50:30;;;;;;;5.50;1.02;;;;;;;;;;10243922;28;20088;-59
2021/09/28 14:55:28;;;;;;;5.93;0.98;;;;;;;;;;10244106;28;20022;-62
2021/09/28 15:00:25;;;;;;;2.00;0.80;;;;;;;;;;10246841;28;20052;-62
2021/09/28 15:05:23;;;;;;;1.83;0.65;;;;;;;;;;10227679;28;20292;-58
2021/09/28 15:10:21;;;;;;;6.75;1.02;;;;;;;;;;10229165;28;20037;-61
2021/09/28 15:15:19;;;;;;;;;;;;;;;;;;10240215;28;20037;-60
2021/09/28 15:20:17;;;;;;;1.00;0.43;;;;;;;;;;10228351;28;20392;-60
2021/09/28 15:25:14;;;;;;;;;;;;;;;;;;10239280;28;20808;-60
2021/09/28 15:30:12;;;;;;;0.40;0.40;;;;;;;;;;10233066;28;19918;-60
2021/09/28 15:35:10;;;;;;;4.72;0.90;;;;;;;;;;10232577;28;20042;-60
2021/09/28 15:40:07;;;;;;;;;;;;;;;;;;10237056;28;20038;-60
2021/09/28 15:45:05;;;;;;;2.80;0.63;;;;;;;;;;10236227;28;19915;-60
2021/09/28 15:50:02;;;;;;;;;;;;;;;;;;10245783;28;20041;-60
2021/09/28 15:55:00;;;;;;;0.35;0.20;;;;;;;;;;10235207;28;20430;-61
2021/09/28 15:59:57;;;;;;;;;;;;;;;;;;10228540;28;20122;-59
2021/09/28 16:04:55;;;;;;;1.30;0.47;;;;;;;;;;10222373;28;20306;-59
2021/09/28 16:09:52;;;;;;;;;;;;;;;;;;10239912;28;20072;-60
2021/09/28 16:14:50;;;;;;;6.55;0.82;;;;;;;;;;10241762;28;19921;-60
2021/09/28 16:19:47;;;;;;;;;;;;;;;;;;10241302;28;20031;-61
2021/09/28 16:24:45;;;;;;;0.50;0.30;;;;;;;;;;10236484;28;19921;-60
2021/09/28 16:29:42;;;;;;;;;;;;;;;;;;10239666;28;20391;-61
2021/09/28 16:34:39;;;;;;;2.55;0.10;;;;;;;;;;10246663;28;19932;-61
2021/09/28 16:39:37;;;;;;;0.53;0.30;;;;;;;;;;10247992;28;20116;-61
2021/09/28 16:44:34;;;;;;;;;;;;;;;;;;10238869;28;20517;-62
2021/09/28 16:49:32;;;;;;;4.20;2.17;;;;;;;;;;10250916;28;19917;-61
2021/09/28 16:54:30;;;;;;;75.27;28.00;;;;;;;;;;10230035;28;20463;-61
2021/09/28 16:59:27;;;;;;;;;;;;;;;;;;10233998;28;20450;-60
2021/09/28 17:04:26;;;;;;;6.95;3.22;;;;;;;;;;10280932;28;19999;-60
2021/09/28 17:09:23;;;;;;;5.97;3.33;;;;;;;;;;10240899;28;20411;-60
2021/09/28 17:14:20;;;;;;;7.47;3.60;;;;;;;;;;10234064;28;20045;-62
2021/09/28 17:19:18;;;;;;;4.07;2.20;;;;;;;;;;10249791;28;20038;-62
2021/09/28 17:24:15;;;;;;;3.77;1.87;;;;;;;;;;10251085;28;20037;-62
2021/09/28 17:29:13;;;;;;;6.23;3.13;;;;;;;;;;10286337;28;20503;-62
2021/09/28 17:34:10;;;;;;;3.43;2.10;;;;;;;;;;10250394;28;20022;-62
2021/09/28 17:39:07;;;;;;;5.47;1.93;;;;;;;;;;10288776;28;20018;-60
2021/09/28 17:44:05;;;;;;;2.23;1.40;;;;;;;;;;10246805;28;20045;-61
2021/09/28 17:49:02;;;;;;;3.40;2.00;;;;;;;;;;10247715;28;20458;-60
2021/09/28 17:54:05;;;;;;;5.70;2.00;;;;;;;;;;10240093;28;20039;-60
2021/09/28 17:59:02;;;;;;;2.58;1.73;;;;;;;;;;10246830;28;20037;-60
2021/09/28 18:04:00;;;;;;;6.05;1.15;;;;;;;;;;10234784;28;20038;-60
2021/09/28 18:08:58;;;;;;;7.30;1.53;;;;;;;;;;10238314;28;20452;-58
2021/09/28 18:13:55;;;;;;;2.75;1.38;;;;;;;;;;10241123;28;20530;-60
2021/09/28 18:18:55;;;;;;;3.43;1.73;;;;;;;;;;10245266;28;20030;-58
2021/09/28 18:23:53;;;;;;;2.45;0.80;;;;;;;;;;10240688;28;20042;-59
2021/09/28 18:28:51;;;;;;;8.68;1.40;;;;;;;;;;10229650;28;20034;-60
2021/09/28 18:33:48;;;;;;;5.65;1.58;;;;;;;;;;10236916;28;20049;-59
2021/09/28 18:38:47;;;;;;;2.07;0.70;;;;;;;;;;10237142;28;20050;-60
2021/09/28 18:43:53;;;;;;;4.47;1.27;;;;;;;;;;10244446;28;20044;-58
2021/09/28 18:48:50;;;;;;;3.00;1.23;;;;;;;;;;10242871;28;20038;-57
2021/09/28 18:53:48;;;;;;;2.27;1.13;;;;;;;;;;10221476;28;20499;-58
2021/09/28 18:58:47;;;;;;;2.53;1.03;;;;;;;;;;10237337;28;20037;-59
2021/09/28 19:03:53;;;;;;;2.00;1.23;;;;;;;;;;10266783;28;20411;-60
2021/09/28 19:08:52;;;;;;;3.00;1.05;;;;;;;;;;10277856;28;20041;-59
2021/09/28 19:13:49;;;;;;;2.13;1.42;;;;;;;;;;10240774;28;20034;-59
2021/09/28 19:18:46;;;;;;;3.50;1.07;;;;;;;;;;10279467;28;20041;-60
2021/09/28 19:23:44;;;;;;;3.83;1.27;;;;;;;;;;10245574;28;20545;-58
2021/09/28 19:28:42;;;;;;;4.33;1.53;;;;;;;;;;10275985;28;20045;-59
2021/09/28 19:33:39;;;;;;;3.45;1.35;;;;;;;;;;10224754;28;20499;-59
2021/09/28 19:38:37;;;;;;;3.23;1.27;;;;;;;;;;10259435;28;20037;-59
2021/09/28 19:43:35;;;;;;;2.33;1.10;;;;;;;;;;10238634;28;20049;-58
2021/09/28 19:48:33;;;;;;;;;;;;;;;;;;10242912;28;20388;-58
2021/09/28 19:53:31;;;;;;;3.05;1.13;;;;;;;;;;10237569;28;19921;-60
2021/09/28 20:04:17;;;;;;;2.90;1.17;;;;;;;;;;10278477;28;20117;-58
2021/09/28 20:35:58;;;;;;;2.00;1.50;;;;;;;;;;10231037;28;21093;-59
2021/09/28 20:40:25;;;;;;;3.58;1.30;;;;;;;;;;10282195;28;20566;-60
2021/09/28 20:45:23;;;;;;;6.63;1.88;;;;;;;;;;10271695;28;20510;-59
2021/09/28 20:50:20;;;;;;;8.27;5.33;;;;;;;;;;10278029;28;20037;-59
2021/09/28 20:55:18;;;;;;;10.93;6.50;;;;;;;;;;10282753;28;20025;-59
2021/09/28 21:00:15;;;;;;;10.93;6.30;;;;;;;;;;10273891;28;20139;-60
2021/09/28 21:05:13;;;;;;;11.43;6.33;;;;;;;;;;10282590;28;20125;-60
2021/09/28 21:10:10;;;;;;;10.70;5.53;;;;;;;;;;10284965;28;20042;-60
2021/09/28 21:15:08;;;;;;;11.37;6.07;;;;;;;;;;10273019;28;20422;-59
2021/09/28 21:20:06;;;;;;;12.07;6.03;;;;;;;;;;10282070;28;20033;-59
2021/09/28 21:25:03;;;;;;;;;;;;;;;;;;10260245;28;20084;-60
2021/09/28 21:30:01;;;;;;;12.25;6.00;;;;;;;;;;10275529;28;19918;-59
2021/09/28 21:34:59;;;;;;;9.67;6.23;;;;;;;;;;10277689;28;20037;-60
2021/09/28 21:39:56;;;;;;;;;;;;;;;;;;10279551;28;20038;-59
2021/09/28 21:44:54;;;;;;;10.30;6.68;;;;;;;;;;10274485;28;20611;-57
2021/09/28 21:49:52;;;;;;;3.57;1.67;;;;;;;;;;10276075;28;20277;-59
2021/09/28 21:54:50;;;;;;;1.75;1.08;;;;;;;;;;10281806;28;20034;-60
2021/09/28 21:59:47;;;;;;;4.17;1.77;;;;;;;;;;10285895;28;20045;-58
2021/09/28 22:04:44;;;;;;;1.57;1.17;;;;;;;;;;10280503;28;20369;-59
2021/09/28 22:09:42;;;;;;;1.80;1.20;;;;;;;;;;10255839;28;20126;-58
2021/09/28 22:14:39;;;;;;;2.83;1.60;;;;;;;;;;10273079;28;20360;-60
2021/09/28 22:19:37;;;;;;;3.67;2.00;;;;;;;;;;10281125;28;20025;-61
2021/09/28 22:24:34;;;;;;;2.40;1.93;;;;;;;;;;10283568;28;20041;-61
2021/09/28 22:29:32;;;;;;;1.10;1.00;;;;;;;;;;10264879;28;20044;-61
2021/09/28 22:34:29;;;;;;;3.47;1.80;;;;;;;;;;10268078;28;20413;-61
2021/09/28 22:39:27;;;;;;;2.40;1.90;;;;;;;;;;10287434;28;20266;-60
2021/09/28 22:44:24;;;;;;;2.43;2.23;;;;;;;;;;10272469;28;20479;-61
2021/09/28 22:49:21;;;;;;;3.80;2.37;;;;;;;;;;10269483;28;20033;-61
2021/09/28 22:54:19;;;;;;;2.20;1.90;;;;;;;;;;10273935;28;20419;-60
2021/09/28 22:59:18;;;;;;;5.03;2.53;;;;;;;;;;10283482;28;20033;-60
2021/09/28 23:04:15;;;;;;;4.63;2.03;;;;;;;;;;10283798;28;20588;-59
2021/09/28 23:09:13;;;;;;;5.40;2.37;;;;;;;;;;10278658;28;20120;-61
2021/09/28 23:14:11;;;;;;;2.67;2.13;;;;;;;;;;10283177;28;20443;-60
2021/09/28 23:19:08;;;;;;;8.37;2.80;;;;;;;;;;10290219;28;20040;-60
2021/09/28 23:24:05;;;;;;;3.50;2.13;;;;;;;;;;10279704;28;20290;-60
2021/09/28 23:29:03;;;;;;;3.30;1.63;;;;;;;;;;10276133;28;20041;-61
2021/09/28 23:34:00;;;;;;;5.00;2.20;;;;;;;;;;10288078;28;20069;-60
2021/09/28 23:38:58;;;;;;;5.57;2.93;;;;;;;;;;10274681;28;20034;-60
2021/09/28 23:43:55;;;;;;;4.83;2.43;;;;;;;;;;10286545;28;20083;-58
2021/09/28 23:48:52;;;;;;;2.43;2.00;;;;;;;;;;10290609;28;20057;-59
2021/09/28 23:53:51;;;;;;;2.70;2.47;;;;;;;;;;10292014;28;20045;-60
2021/09/28 23:58:48;;;;;;;5.00;2.40;;;;;;;;;;10294561;28;20029;-59
